createdAt,value
2023-05-14T00:00:02.108Z,69.23
2023-05-14T00:01:02.128Z,69.06
2023-05-14T00:02:02.182Z,68.66
2023-05-14T00:03:02.254Z,68.27
2023-05-14T00:04:02.297Z,67.84
2023-05-14T00:05:02.245Z,67.43
2023-05-14T00:06:02.259Z,67.14
2023-05-14T00:07:02.262Z,66.95
2023-05-14T00:08:02.323Z,66.91
2023-05-14T00:09:02.328Z,66.85
2023-05-14T00:10:02.319Z,66.70
2023-05-14T00:11:02.310Z,66.37
2023-05-14T00:12:02.367Z,66.30
2023-05-14T00:13:02.435Z,66.32
2023-05-14T00:14:02.474Z,66.23
2023-05-14T00:15:02.523Z,66.34
2023-05-14T00:16:02.564Z,66.76
2023-05-14T00:17:02.538Z,66.90
2023-05-14T00:18:02.584Z,67.26
2023-05-14T00:19:02.659Z,67.57
2023-05-14T00:20:02.654Z,67.95
2023-05-14T00:21:02.672Z,67.68
2023-05-14T00:22:02.718Z,67.30
2023-05-14T00:23:02.738Z,66.95
2023-05-14T00:24:02.726Z,66.97
2023-05-14T00:25:02.781Z,67.05
2023-05-14T00:26:02.805Z,67.29
2023-05-14T00:27:02.866Z,67.50
2023-05-14T00:28:02.897Z,67.33
2023-05-14T00:29:02.943Z,67.05
2023-05-14T00:30:03.013Z,66.73
2023-05-14T00:31:03.041Z,66.54
2023-05-14T00:32:03.045Z,66.32
2023-05-14T00:33:03.129Z,66.24
2023-05-14T00:34:03.186Z,66.47
2023-05-14T00:35:03.256Z,67.01
2023-05-14T00:36:03.302Z,67.63
2023-05-14T00:37:03.365Z,67.77
2023-05-14T00:38:03.379Z,68.07
2023-05-14T00:39:03.449Z,68.51
2023-05-14T00:40:03.485Z,68.79
2023-05-14T00:41:03.485Z,68.47
2023-05-14T00:42:03.508Z,68.39
2023-05-14T00:43:03.527Z,68.44
2023-05-14T00:44:03.543Z,68.40
2023-05-14T00:45:03.569Z,68.23
2023-05-14T00:46:03.604Z,68.03
2023-05-14T00:47:03.679Z,68.11
2023-05-14T00:48:03.744Z,68.02
2023-05-14T00:49:03.652Z,67.89
2023-05-14T00:50:03.739Z,67.67
2023-05-14T00:51:03.727Z,67.44
2023-05-14T00:52:03.734Z,67.45
2023-05-14T00:53:03.784Z,67.73
2023-05-14T00:54:03.824Z,67.64
2023-05-14T00:55:03.854Z,67.74
2023-05-14T00:56:03.868Z,67.94
2023-05-14T00:57:03.913Z,67.86
2023-05-14T00:58:03.934Z,67.92
2023-05-14T00:59:03.976Z,67.69
2023-05-14T01:00:04.006Z,67.65
2023-05-14T01:01:04.118Z,67.45
2023-05-14T01:02:04.049Z,67.63
2023-05-14T01:03:04.182Z,67.66
2023-05-14T01:04:04.151Z,67.47
2023-05-14T01:05:04.153Z,67.31
2023-05-14T01:06:04.169Z,67.51
2023-05-14T01:07:04.219Z,67.30
2023-05-14T01:08:04.208Z,67.13
2023-05-14T01:09:04.278Z,66.93
2023-05-14T01:10:04.300Z,67.13
2023-05-14T01:11:04.298Z,67.07
2023-05-14T01:12:04.279Z,66.91
2023-05-14T01:13:04.303Z,67.17
2023-05-14T01:14:04.389Z,67.67
2023-05-14T01:15:04.417Z,67.65
2023-05-14T01:16:04.467Z,67.62
2023-05-14T01:17:04.520Z,67.54
2023-05-14T01:18:04.564Z,67.37
2023-05-14T01:19:04.564Z,67.33
2023-05-14T01:20:04.575Z,67.36
2023-05-14T01:21:04.580Z,67.03
2023-05-14T01:22:04.602Z,67.05
2023-05-14T01:23:04.624Z,66.86
2023-05-14T01:24:04.638Z,67.17
2023-05-14T01:25:04.626Z,66.96
2023-05-14T01:26:04.661Z,66.97
2023-05-14T01:27:04.665Z,67.07
2023-05-14T01:28:04.670Z,66.60
2023-05-14T01:29:04.796Z,66.78
2023-05-14T01:30:04.832Z,67.03
2023-05-14T01:31:04.866Z,67.52
2023-05-14T01:32:05.056Z,67.61
2023-05-14T01:33:04.979Z,67.78
2023-05-14T01:34:04.958Z,67.84
2023-05-14T01:35:05.018Z,67.80
2023-05-14T01:36:05.006Z,67.49
2023-05-14T01:37:05.029Z,67.44
2023-05-14T01:38:05.058Z,67.64
2023-05-14T01:39:05.087Z,68.51
2023-05-14T01:40:05.099Z,68.51
2023-05-14T01:41:05.146Z,68.42
2023-05-14T01:42:05.139Z,68.58
2023-05-14T01:43:05.260Z,68.18
2023-05-14T01:44:05.218Z,68.42
2023-05-14T01:45:05.200Z,68.23
2023-05-14T01:46:05.275Z,68.26
2023-05-14T01:47:05.221Z,68.15
2023-05-14T01:48:05.311Z,68.37
2023-05-14T01:49:05.248Z,68.55
2023-05-14T01:50:05.292Z,68.53
2023-05-14T01:51:05.298Z,68.38
2023-05-14T01:52:05.337Z,68.10
2023-05-14T01:53:05.356Z,67.74
2023-05-14T01:54:05.356Z,67.20
2023-05-14T01:55:05.384Z,67.58
2023-05-14T01:56:05.399Z,67.29
2023-05-14T01:57:05.463Z,67.20
2023-05-14T01:58:05.502Z,67.45
2023-05-14T01:59:05.554Z,67.60
2023-05-14T02:00:05.587Z,67.37
2023-05-14T02:01:05.626Z,67.49
2023-05-14T02:02:05.577Z,67.64
2023-05-14T02:03:05.704Z,67.58
2023-05-14T02:04:05.689Z,67.41
2023-05-14T02:05:07.040Z,67.40
2023-05-14T02:06:05.710Z,67.17
2023-05-14T02:07:05.748Z,67.14
2023-05-14T02:08:05.780Z,67.63
2023-05-14T02:09:05.843Z,67.91
2023-05-14T02:10:06.416Z,68.11
2023-05-14T02:11:05.895Z,68.35
2023-05-14T02:12:05.888Z,68.42
2023-05-14T02:13:05.913Z,68.50
2023-05-14T02:14:05.938Z,68.91
2023-05-14T02:15:05.990Z,68.77
2023-05-14T02:16:06.057Z,68.61
2023-05-14T02:17:06.042Z,68.55
2023-05-14T02:18:06.090Z,68.64
2023-05-14T02:19:06.134Z,69.20
2023-05-14T02:20:06.096Z,68.35
2023-05-14T02:21:06.118Z,68.85
2023-05-14T02:22:06.077Z,68.92
2023-05-14T02:23:06.146Z,68.58
2023-05-14T02:24:06.196Z,68.75
2023-05-14T02:25:06.232Z,68.63
2023-05-14T02:26:06.356Z,68.71
2023-05-14T02:27:06.330Z,68.68
2023-05-14T02:28:06.305Z,68.62
2023-05-14T02:29:06.320Z,68.98
2023-05-14T02:30:06.321Z,69.15
2023-05-14T02:31:06.394Z,68.76
2023-05-14T02:32:06.416Z,68.99
2023-05-14T02:33:06.489Z,68.81
2023-05-14T02:34:06.429Z,68.92
2023-05-14T02:35:06.421Z,69.23
2023-05-14T02:36:06.433Z,69.16
2023-05-14T02:37:06.462Z,69.50
2023-05-14T02:38:06.481Z,69.10
2023-05-14T02:39:06.544Z,68.79
2023-05-14T02:40:06.569Z,69.06
2023-05-14T02:41:06.558Z,69.19
2023-05-14T02:42:06.566Z,68.85
2023-05-14T02:43:06.616Z,68.71
2023-05-14T02:44:06.614Z,68.40
2023-05-14T02:45:06.635Z,68.10
2023-05-14T02:46:06.632Z,67.72
2023-05-14T02:47:06.705Z,67.32
2023-05-14T02:48:06.763Z,67.07
2023-05-14T02:49:06.706Z,67.11
2023-05-14T02:50:06.736Z,67.27
2023-05-14T02:51:06.774Z,67.38
2023-05-14T02:52:06.784Z,67.63
2023-05-14T02:53:06.776Z,67.36
2023-05-14T02:54:06.782Z,67.33
2023-05-14T02:55:06.840Z,67.42
2023-05-14T02:56:06.910Z,67.44
2023-05-14T02:57:06.896Z,67.24
2023-05-14T02:58:06.894Z,67.29
2023-05-14T02:59:06.918Z,67.33
2023-05-14T03:00:07.006Z,67.16
2023-05-14T03:01:07.129Z,67.31
2023-05-14T03:02:07.050Z,67.33
2023-05-14T03:03:07.090Z,67.32
2023-05-14T03:04:07.066Z,67.10
2023-05-14T03:05:07.079Z,66.84
2023-05-14T03:06:07.071Z,66.69
2023-05-14T03:07:07.090Z,66.71
2023-05-14T03:08:07.132Z,66.62
2023-05-14T03:09:07.161Z,66.78
2023-05-14T03:10:07.221Z,67.02
2023-05-14T03:11:07.268Z,66.81
2023-05-14T03:12:07.274Z,66.58
2023-05-14T03:13:07.332Z,66.46
2023-05-14T03:14:07.381Z,66.42
2023-05-14T03:15:07.487Z,66.34
2023-05-14T03:16:07.452Z,66.16
2023-05-14T03:17:07.576Z,66.41
2023-05-14T03:18:07.524Z,66.01
2023-05-14T03:19:07.599Z,65.98
2023-05-14T03:20:07.537Z,66.15
2023-05-14T03:21:07.595Z,66.14
2023-05-14T03:22:07.613Z,66.19
2023-05-14T03:23:07.638Z,66.20
2023-05-14T03:24:07.663Z,66.03
2023-05-14T03:25:07.697Z,65.95
2023-05-14T03:26:07.722Z,66.08
2023-05-14T03:27:07.738Z,66.24
2023-05-14T03:28:07.806Z,66.00
2023-05-14T03:29:07.837Z,65.56
2023-05-14T03:30:07.837Z,65.45
2023-05-14T03:31:07.913Z,65.36
2023-05-14T03:32:07.911Z,65.24
2023-05-14T03:33:07.906Z,65.05
2023-05-14T03:34:07.912Z,64.87
2023-05-14T03:35:07.955Z,65.03
2023-05-14T03:36:07.977Z,65.42
2023-05-14T03:37:07.985Z,65.54
2023-05-14T03:38:07.971Z,65.59
2023-05-14T03:39:07.985Z,65.57
2023-05-14T03:40:08.049Z,65.79
2023-05-14T03:41:08.092Z,65.88
2023-05-14T03:42:08.117Z,66.18
2023-05-14T03:43:08.138Z,65.98
2023-05-14T03:44:08.118Z,65.74
2023-05-14T03:45:08.194Z,65.80
2023-05-14T03:46:08.207Z,65.82
2023-05-14T03:47:08.267Z,65.66
2023-05-14T03:48:08.386Z,65.68
2023-05-14T03:49:08.338Z,65.84
2023-05-14T03:50:08.328Z,65.61
2023-05-14T03:51:08.355Z,65.47
2023-05-14T03:52:08.347Z,65.55
2023-05-14T03:53:08.353Z,65.59
2023-05-14T03:54:08.382Z,65.72
2023-05-14T03:55:08.385Z,65.71
2023-05-14T03:56:08.407Z,65.57
2023-05-14T03:57:08.420Z,65.63
2023-05-14T03:58:08.436Z,65.67
2023-05-14T03:59:08.408Z,65.72
2023-05-14T04:00:08.472Z,65.64
2023-05-14T04:01:08.447Z,65.75
2023-05-14T04:02:08.453Z,65.91
2023-05-14T04:03:08.540Z,66.21
2023-05-14T04:04:08.588Z,66.53
2023-05-14T04:05:08.513Z,66.54
2023-05-14T04:06:08.546Z,66.51
2023-05-14T04:07:08.547Z,66.52
2023-05-14T04:08:08.557Z,66.76
2023-05-14T04:09:08.597Z,66.82
2023-05-14T04:10:08.616Z,66.83
2023-05-14T04:11:08.632Z,66.63
2023-05-14T04:12:08.675Z,67.38
2023-05-14T04:13:08.704Z,67.53
2023-05-14T04:14:08.730Z,67.48
2023-05-14T04:15:08.758Z,67.14
2023-05-14T04:16:08.782Z,66.58
2023-05-14T04:17:08.783Z,66.24
2023-05-14T04:18:08.850Z,66.14
2023-05-14T04:19:08.847Z,65.67
2023-05-14T04:20:08.846Z,65.92
2023-05-14T04:21:08.908Z,65.77
2023-05-14T04:22:08.904Z,65.81
2023-05-14T04:23:08.919Z,65.79
2023-05-14T04:24:08.958Z,65.78
2023-05-14T04:25:08.970Z,65.70
2023-05-14T04:26:09.006Z,65.74
2023-05-14T04:27:09.038Z,65.52
2023-05-14T04:28:09.001Z,65.99
2023-05-14T04:29:09.029Z,66.04
2023-05-14T04:30:09.055Z,65.92
2023-05-14T04:31:09.084Z,65.81
2023-05-14T04:32:09.107Z,65.87
2023-05-14T04:33:09.123Z,65.75
2023-05-14T04:34:09.089Z,65.75
2023-05-14T04:35:09.125Z,65.64
2023-05-14T04:36:09.426Z,65.50
2023-05-14T04:37:09.120Z,65.28
2023-05-14T04:38:09.136Z,65.22
2023-05-14T04:39:09.154Z,65.24
2023-05-14T04:40:09.158Z,65.35
2023-05-14T04:41:09.164Z,65.05
2023-05-14T04:42:09.148Z,64.92
2023-05-14T04:43:09.200Z,64.67
2023-05-14T04:44:09.315Z,64.72
2023-05-14T04:45:09.371Z,64.62
2023-05-14T04:46:09.500Z,64.48
2023-05-14T04:47:09.401Z,64.54
2023-05-14T04:48:09.537Z,64.49
2023-05-14T04:49:09.456Z,64.59
2023-05-14T04:50:09.481Z,64.69
2023-05-14T04:51:09.471Z,64.58
2023-05-14T04:52:09.527Z,64.65
2023-05-14T04:53:09.527Z,64.49
2023-05-14T04:54:09.591Z,64.66
2023-05-14T04:55:09.582Z,64.91
2023-05-14T04:56:09.610Z,64.86
2023-05-14T04:57:09.625Z,64.79
2023-05-14T04:58:09.653Z,64.69
2023-05-14T04:59:09.667Z,64.98
2023-05-14T05:00:09.709Z,64.98
2023-05-14T05:01:09.755Z,64.82
2023-05-14T05:02:09.767Z,64.66
2023-05-14T05:03:09.892Z,64.55
2023-05-14T05:04:09.894Z,64.53
2023-05-14T05:05:09.898Z,64.42
2023-05-14T05:06:09.949Z,64.33
2023-05-14T05:07:09.999Z,64.21
2023-05-14T05:08:10.045Z,64.38
2023-05-14T05:09:10.074Z,64.59
2023-05-14T05:10:10.090Z,64.64
2023-05-14T05:11:10.131Z,64.48
2023-05-14T05:12:10.161Z,64.32
2023-05-14T05:13:10.164Z,63.98
2023-05-14T05:14:10.202Z,63.93
2023-05-14T05:15:10.249Z,64.13
2023-05-14T05:16:10.326Z,64.32
2023-05-14T05:17:10.309Z,64.49
2023-05-14T05:18:10.355Z,64.45
2023-05-14T05:19:10.440Z,64.45
2023-05-14T05:20:10.391Z,64.30
2023-05-14T05:21:10.387Z,64.04
2023-05-14T05:22:10.512Z,63.96
2023-05-14T05:23:10.464Z,63.93
2023-05-14T05:24:10.492Z,63.90
2023-05-14T05:25:10.568Z,63.77
2023-05-14T05:26:10.606Z,63.61
2023-05-14T05:27:10.664Z,63.74
2023-05-14T05:28:10.748Z,63.54
2023-05-14T05:29:10.785Z,63.25
2023-05-14T05:30:10.859Z,63.04
2023-05-14T05:31:10.944Z,63.00
2023-05-14T05:32:10.890Z,63.20
2023-05-14T05:33:10.957Z,63.08
2023-05-14T05:34:10.945Z,63.33
2023-05-14T05:35:10.971Z,63.50
2023-05-14T05:36:11.039Z,63.15
2023-05-14T05:37:11.089Z,62.86
2023-05-14T05:38:11.132Z,62.73
2023-05-14T05:39:11.130Z,62.49
2023-05-14T05:40:11.251Z,62.87
2023-05-14T05:41:11.272Z,62.85
2023-05-14T05:42:11.279Z,63.18
2023-05-14T05:43:11.271Z,63.19
2023-05-14T05:44:11.293Z,63.49
2023-05-14T05:45:11.330Z,63.31
2023-05-14T05:46:11.469Z,63.24
2023-05-14T05:47:11.375Z,63.63
2023-05-14T05:48:11.378Z,63.16
2023-05-14T05:49:11.377Z,63.05
2023-05-14T05:50:11.472Z,63.00
2023-05-14T05:51:11.452Z,63.32
2023-05-14T05:52:11.503Z,63.32
2023-05-14T05:53:11.535Z,63.22
2023-05-14T05:54:11.565Z,63.19
2023-05-14T05:55:11.628Z,63.27
2023-05-14T05:56:11.628Z,63.64
2023-05-14T05:57:11.664Z,63.51
2023-05-14T05:58:11.686Z,63.75
2023-05-14T05:59:11.725Z,63.60
2023-05-14T06:00:11.798Z,63.25
2023-05-14T06:01:11.887Z,62.98
2023-05-14T06:02:11.925Z,62.63
2023-05-14T06:03:11.963Z,62.44
2023-05-14T06:04:11.934Z,62.73
2023-05-14T06:05:12.031Z,62.86
2023-05-14T06:06:12.001Z,63.11
2023-05-14T06:07:12.009Z,63.33
2023-05-14T06:08:12.037Z,63.19
2023-05-14T06:09:12.065Z,62.72
2023-05-14T06:10:13.005Z,62.81
2023-05-14T06:11:12.484Z,63.04
2023-05-14T06:12:12.158Z,62.71
2023-05-14T06:13:12.221Z,62.69
2023-05-14T06:14:12.267Z,62.44
2023-05-14T06:15:12.267Z,61.97
2023-05-14T06:16:12.313Z,61.76
2023-05-14T06:17:12.287Z,61.43
2023-05-14T06:18:12.296Z,61.37
2023-05-14T06:19:12.429Z,61.33
2023-05-14T06:20:12.367Z,61.23
2023-05-14T06:21:12.389Z,61.09
2023-05-14T06:22:12.410Z,61.35
2023-05-14T06:23:12.502Z,61.36
2023-05-14T06:24:12.447Z,61.39
2023-05-14T06:25:12.496Z,61.44
2023-05-14T06:26:12.517Z,61.01
2023-05-14T06:27:12.531Z,60.56
2023-05-14T06:28:12.572Z,60.47
2023-05-14T06:29:12.617Z,60.18
2023-05-14T06:30:12.645Z,60.36
2023-05-14T06:31:12.626Z,60.35
2023-05-14T06:32:12.799Z,60.63
2023-05-14T06:33:12.692Z,60.98
2023-05-14T06:34:12.761Z,60.78
2023-05-14T06:35:12.787Z,60.15
2023-05-14T06:36:12.813Z,60.14
2023-05-14T06:37:12.837Z,59.95
2023-05-14T06:38:12.867Z,59.77
2023-05-14T06:39:12.886Z,59.33
2023-05-14T06:40:12.959Z,59.02
2023-05-14T06:41:12.997Z,59.23
2023-05-14T06:42:12.982Z,59.59
2023-05-14T06:43:13.053Z,59.54
2023-05-14T06:44:13.061Z,59.30
2023-05-14T06:45:13.088Z,58.93
2023-05-14T06:46:13.127Z,58.69
2023-05-14T06:47:13.166Z,58.55
2023-05-14T06:48:13.266Z,58.50
2023-05-14T06:49:13.365Z,58.94
2023-05-14T06:50:13.284Z,59.11
2023-05-14T06:51:13.379Z,58.48
2023-05-14T06:52:13.331Z,58.03
2023-05-14T06:53:13.384Z,57.93
2023-05-14T06:54:13.414Z,57.76
2023-05-14T06:55:13.410Z,57.93
2023-05-14T06:56:13.445Z,58.01
2023-05-14T06:57:13.449Z,58.44
2023-05-14T06:58:13.484Z,58.11
2023-05-14T06:59:13.513Z,57.91
2023-05-14T07:00:13.518Z,57.70
2023-05-14T07:01:13.593Z,57.68
2023-05-14T07:02:13.549Z,57.84
2023-05-14T07:03:13.565Z,57.97
2023-05-14T07:04:13.635Z,57.79
2023-05-14T07:05:13.672Z,57.76
2023-05-14T07:06:13.773Z,57.44
2023-05-14T07:07:13.732Z,56.66
2023-05-14T07:08:13.747Z,56.89
2023-05-14T07:09:13.781Z,57.28
2023-05-14T07:10:13.857Z,57.56
2023-05-14T07:11:13.866Z,57.87
2023-05-14T07:12:13.914Z,57.65
2023-05-14T07:13:13.967Z,57.46
2023-05-14T07:14:13.985Z,56.90
2023-05-14T07:15:14.051Z,56.80
2023-05-14T07:16:14.089Z,56.21
2023-05-14T07:17:14.186Z,56.20
2023-05-14T07:18:14.182Z,56.23
2023-05-14T07:19:14.300Z,56.16
2023-05-14T07:20:14.212Z,56.86
2023-05-14T07:21:14.255Z,56.77
2023-05-14T07:22:14.260Z,56.67
2023-05-14T07:23:14.299Z,56.24
2023-05-14T07:24:14.265Z,56.21
2023-05-14T07:25:14.296Z,56.00
2023-05-14T07:26:14.350Z,55.93
2023-05-14T07:27:14.413Z,55.74
2023-05-14T07:28:14.989Z,55.50
2023-05-14T07:29:14.432Z,55.15
2023-05-14T07:30:14.441Z,55.04
2023-05-14T07:31:14.467Z,54.96
2023-05-14T07:32:15.669Z,54.80
2023-05-14T07:33:14.509Z,54.29
2023-05-14T07:34:14.515Z,53.99
2023-05-14T07:35:14.520Z,53.98
2023-05-14T07:36:14.548Z,54.23
2023-05-14T07:37:14.529Z,54.53
2023-05-14T07:38:14.561Z,54.46
2023-05-14T07:39:14.599Z,54.58
2023-05-14T07:40:14.620Z,54.49
2023-05-14T07:41:14.669Z,53.88
2023-05-14T07:42:24.572Z,53.00
2023-05-14T07:43:15.710Z,52.11
2023-05-14T07:44:14.692Z,52.15
2023-05-14T07:45:14.677Z,52.48
2023-05-14T07:46:14.668Z,53.41
2023-05-14T07:47:14.690Z,53.91
2023-05-14T07:48:14.803Z,54.23
2023-05-14T07:49:14.656Z,54.34
2023-05-14T07:50:14.645Z,54.27
2023-05-14T07:51:14.646Z,54.06
2023-05-14T07:52:14.626Z,54.01
2023-05-14T07:53:14.630Z,53.33
2023-05-14T07:54:14.613Z,52.86
2023-05-14T07:55:14.603Z,52.37
2023-05-14T07:56:14.649Z,51.80
2023-05-14T07:57:14.706Z,51.78
2023-05-14T07:58:14.711Z,51.73
2023-05-14T07:59:14.766Z,52.87
2023-05-14T08:00:14.827Z,52.53
2023-05-14T08:01:14.874Z,52.23
2023-05-14T08:02:14.949Z,51.52
2023-05-14T08:03:15.139Z,51.35
2023-05-14T08:04:15.027Z,53.00
2023-05-14T08:05:15.061Z,52.68
2023-05-14T08:06:15.108Z,52.66
2023-05-14T08:07:15.187Z,53.63
2023-05-14T08:08:15.186Z,53.55
2023-05-14T08:09:15.255Z,53.15
2023-05-14T08:10:15.329Z,53.18
2023-05-14T08:11:15.388Z,51.78
2023-05-14T08:12:15.382Z,51.39
2023-05-14T08:13:15.473Z,51.00
2023-05-14T08:14:15.510Z,50.99
2023-05-14T08:15:15.595Z,50.54
2023-05-14T08:16:15.647Z,49.93
2023-05-14T08:17:15.716Z,49.71
2023-05-14T08:18:15.711Z,49.69
2023-05-14T08:19:15.804Z,49.97
2023-05-14T08:20:15.761Z,50.18
2023-05-14T08:21:15.747Z,51.32
2023-05-14T08:22:15.755Z,51.05
2023-05-14T08:23:15.785Z,49.97
2023-05-14T08:24:15.823Z,48.76
2023-05-14T08:25:15.872Z,48.10
2023-05-14T08:26:15.863Z,48.49
2023-05-14T08:27:15.906Z,49.04
2023-05-14T08:28:15.922Z,48.80
2023-05-14T08:29:16.700Z,49.28
2023-05-14T08:30:16.009Z,50.03
2023-05-14T08:31:16.067Z,49.76
2023-05-14T08:32:23.258Z,49.24
2023-05-14T08:33:17.062Z,49.08
2023-05-14T08:34:16.020Z,48.45
2023-05-14T08:35:16.025Z,48.30
2023-05-14T08:36:16.015Z,48.12
2023-05-14T08:37:15.987Z,47.10
2023-05-14T08:38:15.989Z,47.13
2023-05-14T08:39:15.988Z,46.88
2023-05-14T08:40:15.960Z,47.46
2023-05-14T08:41:15.970Z,48.05
2023-05-14T08:42:15.969Z,48.00
2023-05-14T08:43:15.953Z,46.98
2023-05-14T08:44:15.960Z,45.42
2023-05-14T08:45:15.967Z,44.73
2023-05-14T08:46:15.996Z,45.15
2023-05-14T08:47:16.053Z,45.34
2023-05-14T08:48:16.160Z,45.00
2023-05-14T08:49:16.137Z,45.44
2023-05-14T08:50:16.164Z,45.08
2023-05-14T08:51:16.185Z,46.10
2023-05-14T08:52:16.233Z,45.92
2023-05-14T08:53:16.241Z,46.70
2023-05-14T08:54:16.284Z,45.49
2023-05-14T08:55:16.349Z,45.43
2023-05-14T08:56:16.404Z,46.24
2023-05-14T08:57:16.471Z,45.63
2023-05-14T08:58:16.483Z,44.76
2023-05-14T08:59:16.532Z,44.32
2023-05-14T09:00:16.573Z,44.12
2023-05-14T09:01:16.648Z,43.91
2023-05-14T09:02:16.639Z,43.45
2023-05-14T09:03:16.735Z,43.36
2023-05-14T09:04:16.736Z,43.78
2023-05-14T09:05:16.717Z,43.40
2023-05-14T09:06:16.751Z,43.15
2023-05-14T09:07:16.820Z,42.29
2023-05-14T09:08:16.851Z,41.14
2023-05-14T09:09:16.876Z,41.59
2023-05-14T09:10:17.516Z,42.56
2023-05-14T09:11:16.967Z,43.26
2023-05-14T09:12:16.996Z,43.28
2023-05-14T09:13:17.020Z,43.60
2023-05-14T09:14:17.078Z,43.88
2023-05-14T09:15:17.120Z,43.80
2023-05-14T09:16:17.211Z,44.35
2023-05-14T09:17:17.185Z,44.35
2023-05-14T09:18:17.186Z,43.61
2023-05-14T09:19:17.265Z,43.23
2023-05-14T09:20:17.255Z,42.70
2023-05-14T09:21:17.292Z,42.51
2023-05-14T09:22:17.326Z,42.55
2023-05-14T09:23:17.347Z,42.28
2023-05-14T09:24:17.321Z,42.64
2023-05-14T09:25:17.320Z,42.55
2023-05-14T09:26:17.360Z,41.95
2023-05-14T09:27:17.421Z,41.69
2023-05-14T09:28:17.532Z,41.75
2023-05-14T09:29:17.519Z,42.29
2023-05-14T09:30:17.544Z,42.25
2023-05-14T09:31:17.609Z,42.04
2023-05-14T09:32:17.612Z,41.82
2023-05-14T09:33:17.639Z,41.65
2023-05-14T09:34:17.705Z,42.36
2023-05-14T09:35:18.057Z,42.53
2023-05-14T09:36:17.859Z,43.57
2023-05-14T09:37:17.855Z,43.65
2023-05-14T09:38:17.878Z,43.21
2023-05-14T09:39:17.902Z,42.81
2023-05-14T09:40:17.933Z,42.20
2023-05-14T09:41:17.959Z,42.17
2023-05-14T09:42:18.002Z,41.76
2023-05-14T09:43:17.997Z,41.70
2023-05-14T09:44:18.035Z,41.07
2023-05-14T09:45:18.085Z,40.91
2023-05-14T09:46:18.067Z,40.31
2023-05-14T09:47:18.113Z,39.43
2023-05-14T09:48:18.142Z,39.89
2023-05-14T09:49:18.133Z,40.36
2023-05-14T09:50:18.190Z,41.52
2023-05-14T09:51:18.196Z,40.78
2023-05-14T09:52:18.249Z,40.18
2023-05-14T09:53:18.241Z,40.36
2023-05-14T09:54:18.299Z,41.75
2023-05-14T09:55:18.373Z,40.93
2023-05-14T09:56:18.370Z,40.79
2023-05-14T09:57:18.389Z,41.51
2023-05-14T09:58:18.405Z,41.91
2023-05-14T09:59:18.458Z,43.11
2023-05-14T10:00:18.477Z,43.57
2023-05-14T10:01:18.541Z,42.79
2023-05-14T10:02:18.557Z,42.39
2023-05-14T10:03:20.089Z,42.56
2023-05-14T10:04:18.680Z,43.10
2023-05-14T10:05:18.698Z,42.25
2023-05-14T10:06:18.749Z,42.22
2023-05-14T10:07:18.780Z,41.88
2023-05-14T10:08:18.773Z,41.53
2023-05-14T10:09:18.864Z,41.55
2023-05-14T10:10:18.885Z,41.22
2023-05-14T10:11:18.925Z,41.64
2023-05-14T10:12:18.948Z,41.43
2023-05-14T10:13:18.948Z,41.57
2023-05-14T10:14:18.981Z,42.21
2023-05-14T10:15:18.985Z,42.04
2023-05-14T10:16:19.071Z,41.82
2023-05-14T10:17:19.179Z,41.86
2023-05-14T10:18:19.256Z,41.51
2023-05-14T10:19:19.200Z,42.04
2023-05-14T10:20:19.237Z,42.00
2023-05-14T10:21:19.232Z,41.43
2023-05-14T10:22:19.241Z,41.52
2023-05-14T10:23:19.284Z,41.29
2023-05-14T10:24:19.339Z,41.33
2023-05-14T10:25:19.410Z,41.13
2023-05-14T10:26:20.148Z,41.14
2023-05-14T10:27:19.468Z,41.24
2023-05-14T10:28:19.464Z,41.26
2023-05-14T10:29:19.538Z,41.16
2023-05-14T10:30:19.534Z,41.32
2023-05-14T10:31:19.590Z,41.46
2023-05-14T10:32:19.642Z,41.20
2023-05-14T10:33:19.639Z,41.02
2023-05-14T10:34:19.702Z,40.42
2023-05-14T10:35:19.709Z,40.42
2023-05-14T10:36:19.729Z,40.22
2023-05-14T10:37:20.553Z,40.26
2023-05-14T10:38:19.770Z,40.32
2023-05-14T10:39:19.827Z,40.74
2023-05-14T10:40:19.861Z,41.00
2023-05-14T10:41:19.863Z,40.86
2023-05-14T10:42:19.920Z,40.98
2023-05-14T10:43:19.936Z,40.90
2023-05-14T10:44:19.952Z,40.98
2023-05-14T10:45:19.968Z,41.35
2023-05-14T10:46:20.067Z,41.26
2023-05-14T10:47:20.058Z,41.03
2023-05-14T10:48:20.108Z,41.27
2023-05-14T10:49:28.246Z,41.67
2023-05-14T10:50:21.092Z,42.08
2023-05-14T10:51:20.079Z,42.20
2023-05-14T10:52:20.069Z,42.25
2023-05-14T10:53:20.095Z,41.54
2023-05-14T10:54:20.068Z,41.13
2023-05-14T10:55:20.041Z,40.89
2023-05-14T10:56:20.059Z,40.99
2023-05-14T10:57:20.114Z,41.07
2023-05-14T10:58:20.043Z,40.72
2023-05-14T10:59:20.063Z,40.87
2023-05-14T11:00:20.034Z,40.33
2023-05-14T11:01:20.052Z,41.03
2023-05-14T11:02:20.125Z,41.21
2023-05-14T11:03:20.031Z,40.91
2023-05-14T11:04:20.025Z,40.67
2023-05-14T11:05:19.997Z,40.38
2023-05-14T11:06:20.006Z,40.25
2023-05-14T11:07:20.027Z,40.01
2023-05-14T11:08:20.043Z,39.04
2023-05-14T11:09:20.070Z,39.18
2023-05-14T11:10:20.153Z,40.23
2023-05-14T11:11:20.096Z,40.30
2023-05-14T11:12:20.128Z,40.33
2023-05-14T11:13:20.148Z,40.19
2023-05-14T11:14:20.205Z,40.54
2023-05-14T11:15:20.236Z,40.27
2023-05-14T11:16:23.740Z,40.09
2023-05-14T11:17:20.297Z,39.92
2023-05-14T11:18:20.240Z,40.39
2023-05-14T11:19:20.261Z,40.21
2023-05-14T11:20:20.220Z,40.34
2023-05-14T11:21:20.301Z,40.06
2023-05-14T11:22:20.219Z,40.33
2023-05-14T11:23:20.208Z,40.59
2023-05-14T11:24:20.197Z,40.51
2023-05-14T11:25:20.224Z,40.56
2023-05-14T11:26:21.812Z,40.80
2023-05-14T11:27:20.185Z,40.76
2023-05-14T11:28:20.178Z,40.92
2023-05-14T11:29:20.167Z,41.24
2023-05-14T11:30:20.219Z,41.39
2023-05-14T11:31:20.200Z,41.08
2023-05-14T11:32:20.147Z,40.96
2023-05-14T11:33:20.188Z,41.30
2023-05-14T11:34:20.167Z,41.52
2023-05-14T11:35:20.142Z,41.84
2023-05-14T11:36:20.142Z,43.38
2023-05-14T11:37:20.135Z,43.38
2023-05-14T11:38:20.137Z,43.49
2023-05-14T11:39:20.117Z,43.70
2023-05-14T11:40:20.082Z,43.90
2023-05-14T11:41:20.091Z,43.58
2023-05-14T11:42:20.094Z,44.24
2023-05-14T11:43:20.089Z,44.56
2023-05-14T11:44:20.058Z,45.17
2023-05-14T11:45:20.058Z,45.33
2023-05-14T11:46:20.200Z,45.97
2023-05-14T11:47:20.068Z,46.26
2023-05-14T11:48:20.157Z,46.69
2023-05-14T11:49:20.195Z,46.85
2023-05-14T11:50:20.217Z,46.60
2023-05-14T11:51:20.303Z,46.86
2023-05-14T11:52:20.296Z,46.78
2023-05-14T11:53:20.302Z,47.19
2023-05-14T11:54:20.298Z,47.58
2023-05-14T11:55:20.311Z,47.70
2023-05-14T11:56:20.322Z,47.62
2023-05-14T11:57:20.386Z,47.79
2023-05-14T11:58:20.406Z,48.19
2023-05-14T11:59:20.444Z,48.26
2023-05-14T12:00:20.544Z,49.22
2023-05-14T12:01:20.467Z,49.09
2023-05-14T12:02:20.501Z,48.55
2023-05-14T12:03:20.713Z,49.27
2023-05-14T12:04:20.564Z,49.29
2023-05-14T12:05:20.590Z,49.67
2023-05-14T12:06:20.581Z,50.16
2023-05-14T12:07:20.590Z,52.05
2023-05-14T12:08:20.600Z,52.21
2023-05-14T12:09:20.616Z,52.39
2023-05-14T12:10:20.666Z,51.81
2023-05-14T12:11:20.769Z,52.08
2023-05-14T12:12:20.752Z,50.80
2023-05-14T12:13:20.789Z,50.34
2023-05-14T12:14:20.839Z,50.61
2023-05-14T12:15:20.839Z,50.02
2023-05-14T12:16:20.885Z,49.51
2023-05-14T12:17:20.988Z,49.57
2023-05-14T12:18:24.564Z,49.45
2023-05-14T12:19:20.982Z,49.35
2023-05-14T12:20:20.956Z,48.90
2023-05-14T12:21:20.889Z,48.69
2023-05-14T12:22:20.917Z,48.75
2023-05-14T12:23:20.891Z,48.35
2023-05-14T12:24:20.893Z,49.04
2023-05-14T12:25:20.883Z,48.71
2023-05-14T12:26:20.870Z,48.50
2023-05-14T12:27:20.860Z,48.03
2023-05-14T12:28:20.864Z,49.51
2023-05-14T12:29:20.900Z,49.44
2023-05-14T12:30:22.142Z,49.63
2023-05-14T12:31:20.858Z,48.45
2023-05-14T12:32:20.823Z,48.28
2023-05-14T12:33:20.826Z,48.16
2023-05-14T12:34:20.817Z,47.84
2023-05-14T12:35:20.814Z,48.29
2023-05-14T12:36:22.426Z,48.11
2023-05-14T12:37:20.799Z,47.96
2023-05-14T12:38:20.792Z,48.47
2023-05-14T12:39:20.819Z,48.69
2023-05-14T12:40:20.782Z,48.78
2023-05-14T12:41:20.779Z,48.16
2023-05-14T12:42:20.765Z,48.25
2023-05-14T12:43:20.789Z,47.37
2023-05-14T12:44:20.757Z,47.77
2023-05-14T12:45:20.766Z,47.11
2023-05-14T12:46:20.779Z,46.82
2023-05-14T12:47:20.992Z,47.27
2023-05-14T12:48:20.764Z,48.08
2023-05-14T12:49:20.727Z,48.12
2023-05-14T12:50:20.739Z,48.54
2023-05-14T12:51:20.727Z,49.01
2023-05-14T12:52:36.100Z,48.45